KLNK

Lincoln Airport

Lincoln, Nebraska, USA
KLNK 190520Z 1906/2006 19010KT P6SM OVC060 TEMPO 1908/1911 -RA BKN030 FM191100 22012KT P6SM BKN100 FM191600 27014KT P6SM SKC FM192000 33016G23KT P6SM SKC FM192300 34007KT P6SM SKC
Issued Valid From Valid To
Oct-19 @ 05:20 UTC
(4 hours ago)
Oct-19 @ 06:00 UTC
(3 hours ago)
Oct-20 @ 06:00 UTC
(in 21 hours)
Oct-19 @ 06:00 to Oct-19 @ 11:00
KLNK 190520Z 1906/2006 19010KT P6SM OVC060
Wind Visibility Clouds
190° at 10 knots Greater than 6 miles
  • Overcast at 6,000' AGL
Temporary Oct-19 @ 08:00 to Oct-19 @ 11:00
TEMPO 1908/1911 -RA BKN030
Clouds Conditions
  • Broken at 3,000' AGL
  • Light Rain
From Oct-19 @ 11:00 to Oct-19 @ 16:00
FM191100 22012KT P6SM BKN100
Wind Visibility Clouds
220° at 12 knots Greater than 6 miles
  • Broken at 10,000' AGL
From Oct-19 @ 16:00 to Oct-19 @ 20:00
FM191600 27014KT P6SM SKC
Wind Visibility Clouds
270° at 14 knots Greater than 6 miles
  • Clear skies
From Oct-19 @ 20:00 to Oct-19 @ 23:00
FM192000 33016G23KT P6SM SKC
Wind Visibility Clouds
330° at 16 knots
 Gusting to 23 knots
Greater than 6 miles
  • Clear skies
From Oct-19 @ 23:00 to Oct-20 @ 06:00
FM192300 34007KT P6SM SKC
Wind Visibility Clouds
340° at 7 knots Greater than 6 miles
  • Clear skies
KLNK 190520Z 1906/2006 19010KT P6SM OVC060 TEMPO 1908/1911 -RA BKN030 FM191100 22012KT P6SM BKN100 FM191600 27014KT P6SM SKC FM192000 33016G23KT P6SM SKC FM192300 34007KT P6SM SKC
Issued Oct-19 @ 05:20 UTC
(4 hours ago)
Valid From Oct-19 @ 06:00 UTC
(3 hours ago)
Valid To Oct-20 @ 06:00 UTC
(in 21 hours)
Oct-19 @ 06:00 - Oct-19 @ 11:00
Wind Visibility
190° at 10 knots Greater than 6 miles
Clouds
  • Overcast at 6,000' AGL
Temporary Oct-19 @ 08:00 - Oct-19 @ 11:00
Clouds
  • Broken at 3,000' AGL
Conditions
  • Light Rain
From Oct-19 @ 11:00 - Oct-19 @ 16:00
Wind Visibility
220° at 12 knots Greater than 6 miles
Clouds
  • Broken at 10,000' AGL
From Oct-19 @ 16:00 - Oct-19 @ 20:00
Wind Visibility
270° at 14 knots Greater than 6 miles
Clouds
  • Clear skies
From Oct-19 @ 20:00 - Oct-19 @ 23:00
Wind Visibility
330° at 16 knots
 Gusting to 23 knots
Greater than 6 miles
Clouds
  • Clear skies
From Oct-19 @ 23:00 - Oct-20 @ 06:00
Wind Visibility
340° at 7 knots Greater than 6 miles
Clouds
  • Clear skies